Terminal Aerodrome Forecast
Issued by NWS

Home | Current Version | Previous Version | Text Only | Print | Product List | Glossary On
Versions: 1 2 3 4 5 6 7 8 9 10 11 12 13
110
FTUS42 KTAE 091733
TAFABY
TAF
KABY 091733Z 0918/1018 27015G30KT P6SM SCT060
     FM100000 28010KT P6SM SCT040
     FM101500 30010G15KT P6SM SKC=

USA.gov is the U.S. government's official web portal to all federal, state and local government web resources and services.